Time;durP1;ratioP1;P1;durP2;ratioP2;P2;SDS_P1;SDS_P2;PMS_P1;PMS_P2;Temp;Humidity;BMP_temperature;BMP_pressure;BME280_temperature;BME280_humidity;BME280_pressure;Samples;Min_cycle;Max_cycle;Signal;HPM_P1;HPM_P2
2022/03/13 00:01:41;;;;;;;5.82;3.70;;;;;;;;;;5042323;28;20033;-78
2022/03/13 00:04:08;;;;;;;8.55;4.07;;;;;;;;;;5046698;28;20389;-77
2022/03/13 00:06:37;;;;;;;12.63;4.65;;;;;;;;;;5047109;28;20025;-79
2022/03/13 00:09:05;;;;;;;7.85;4.25;;;;;;;;;;5039228;28;20051;-79
2022/03/13 00:11:31;;;;;;;10.30;3.72;;;;;;;;;;5045633;28;20017;-80
2022/03/13 00:13:58;;;;;;;12.13;5.40;;;;;;;;;;5036919;28;20550;-81
2022/03/13 00:16:25;;;;;;;9.40;2.60;;;;;;;;;;5046525;28;20033;-79
2022/03/13 00:18:51;;;;;;;8.50;3.90;;;;;;;;;;5047870;28;20627;-78
2022/03/13 00:21:18;;;;;;;8.48;4.07;;;;;;;;;;5041333;28;20053;-78
2022/03/13 00:23:45;;;;;;;10.70;3.38;;;-1.00;99.90;;;;;;5039840;28;20067;-81
2022/03/13 00:26:13;;;;;;;12.20;3.97;;;;;;;;;;5052362;28;20043;-80
2022/03/13 00:28:39;;;;;;;9.52;4.18;;;;;;;;;;5037483;28;20032;-78
2022/03/13 00:31:05;;;;;;;6.88;3.75;;;;;;;;;;5046851;28;20033;-79
2022/03/13 00:33:32;;;;;;;7.72;3.58;;;;;;;;;;5043825;28;20433;-78
2022/03/13 00:35:57;;;;;;;6.80;4.47;;;;;;;;;;5042473;28;20481;-81
2022/03/13 00:38:25;;;;;;;6.55;4.00;;;;;;;;;;5044179;28;20028;-80
2022/03/13 00:40:51;;;;;;;6.55;3.08;;;;;;;;;;5052272;28;20035;-77
2022/03/13 00:43:19;;;;;;;8.90;3.88;;;;;;;;;;5038804;28;20067;-80
2022/03/13 00:45:44;;;;;;;8.75;4.43;;;;;;;;;;5043326;28;20061;-77
2022/03/13 00:48:11;;;;;;;8.40;3.90;;;;;;;;;;5041061;28;20075;-80
2022/03/13 00:50:37;;;;;;;9.82;3.28;;;;;;;;;;5045112;28;20032;-82
2022/03/13 00:53:03;;;;;;;10.82;4.90;;;;;;;;;;5041238;28;20417;-80
2022/03/13 00:55:29;;;;;;;9.57;3.97;;;;;;;;;;5048527;28;20028;-82
2022/03/13 00:57:55;;;;;;;14.50;4.55;;;;;;;;;;5042015;28;20101;-81
2022/03/13 01:00:21;;;;;;;9.65;3.67;;;;;;;;;;5046921;28;20029;-77
2022/03/13 01:02:47;;;;;;;5.38;3.28;;;;;;;;;;5042867;28;20085;-82
2022/03/13 01:05:21;;;;;;;8.15;3.95;;;;;;;;;;5044750;28;20048;-81
2022/03/13 01:07:47;;;;;;;10.65;4.50;;;;;;;;;;5044068;28;20465;-78
2022/03/13 01:10:13;;;;;;;11.50;4.13;;;;;;;;;;5041928;28;20037;-78
2022/03/13 01:12:39;;;;;;;8.10;4.65;;;;;;;;;;5042262;28;20056;-79
2022/03/13 01:15:06;;;;;;;14.60;5.90;;;;;;;;;;5042254;28;20041;-78
2022/03/13 01:17:32;;;;;;;14.63;4.20;;;;;;;;;;5048683;28;20031;-77
2022/03/13 01:19:58;;;;;;;10.05;4.25;;;;;;;;;;5048544;28;20056;-80
2022/03/13 01:22:24;;;;;;;15.38;4.47;;;;;;;;;;5040266;28;20021;-80
2022/03/13 01:24:51;;;;;;;5.00;3.10;;;;;;;;;;5036476;28;20083;-77
2022/03/13 01:27:17;;;;;;;9.35;4.47;;;;;;;;;;5039137;28;20404;-78
2022/03/13 01:29:44;;;;;;;10.43;3.80;;;;;;;;;;5043945;28;20032;-77
2022/03/13 01:32:12;;;;;;;9.15;2.67;;;;;;;;;;5048231;28;20472;-78
2022/03/13 01:34:58;;;;;;;8.52;3.47;;;;;;;;;;5042275;28;20043;-79
2022/03/13 01:37:34;;;;;;;8.30;4.20;;;;;;;;;;5046343;28;20083;-76
2022/03/13 01:40:02;;;;;;;8.05;3.60;;;;;;;;;;5051911;28;20025;-76
2022/03/13 01:42:28;;;;;;;4.40;3.17;;;;;;;;;;5036957;28;20032;-78
2022/03/13 01:44:54;;;;;;;7.32;3.33;;;;;;;;;;5035337;28;20128;-82
2022/03/13 01:47:20;;;;;;;10.43;4.63;;;;;;;;;;5046467;28;20036;-79
2022/03/13 01:49:47;;;;;;;12.27;5.75;;;;;;;;;;5038132;28;20112;-79
2022/03/13 01:52:15;;;;;;;12.05;4.07;;;;;;;;;;5044873;28;20025;-81
2022/03/13 01:54:42;;;;;;;11.45;3.70;;;;;;;;;;5046402;28;20052;-78
2022/03/13 01:57:08;;;;;;;7.60;3.58;;;;;;;;;;5039952;28;20072;-81
2022/03/13 01:59:36;;;;;;;10.23;3.83;;;;;;;;;;5038318;28;20498;-79
2022/03/13 02:02:02;;;;;;;5.70;3.10;;;;;;;;;;5045374;28;20068;-76
2022/03/13 02:04:30;;;;;;;16.35;4.75;;;;;;;;;;5042808;28;20036;-76
2022/03/13 02:06:58;;;;;;;8.60;3.88;;;;;;;;;;5036739;28;20499;-78
2022/03/13 02:09:25;;;;;;;7.88;3.45;;;;;;;;;;5048577;28;20068;-78
2022/03/13 02:11:51;;;;;;;11.07;3.58;;;;;;;;;;5043628;28;20025;-82
2022/03/13 02:14:21;;;;;;;8.75;3.33;;;;;;;;;;5038056;28;20156;-81
2022/03/13 02:16:47;;;;;;;5.22;2.78;;;;;;;;;;5042979;28;20032;-78
2022/03/13 02:19:13;;;;;;;4.43;3.33;;;;;;;;;;5043714;28;20025;-77
2022/03/13 02:21:44;;;;;;;7.60;4.88;;;;;;;;;;5040022;28;20074;-77
2022/03/13 02:24:14;;;;;;;10.38;4.47;;;;;;;;;;5044756;28;20060;-79
2022/03/13 02:26:42;;;;;;;7.35;3.42;;;;;;;;;;5043389;28;20043;-82
2022/03/13 02:29:11;;;;;;;7.68;3.50;;;;;;;;;;5042094;28;20044;-78
2022/03/13 02:31:37;;;;;;;6.20;4.22;;;;;;;;;;5039974;28;20017;-82
2022/03/13 02:34:05;;;;;;;7.63;3.10;;;;;;;;;;5043164;28;20095;-78
2022/03/13 02:36:31;;;;;;;4.80;2.85;;;;;;;;;;5045223;28;20437;-81
2022/03/13 02:38:58;;;;;;;4.88;3.10;;;;;;;;;;5046843;28;20021;-79
2022/03/13 02:41:26;;;;;;;11.45;3.80;;;;;;;;;;5046717;28;20108;-79
2022/03/13 02:43:52;;;;;;;10.23;3.88;;;;;;;;;;5048598;28;20040;-78
2022/03/13 02:46:20;;;;;;;8.38;3.33;;;;;;;;;;5049717;28;20028;-78
2022/03/13 02:48:46;;;;;;;6.97;3.45;;;;;;;;;;5043938;28;20035;-81
2022/03/13 02:51:11;;;;;;;9.20;4.35;;;-2.00;99.90;;;;;;5045348;28;20115;-79
2022/03/13 02:53:38;;;;;;;4.05;2.95;;;;;;;;;;5044819;28;20025;-82
2022/03/13 02:56:05;;;;;;;15.23;5.82;;;;;;;;;;5054865;28;20064;-77
2022/03/13 02:58:31;;;;;;;6.72;3.55;;;;;;;;;;5043091;28;20484;-81
2022/03/13 03:00:57;;;;;;;5.07;2.45;;;;;;;;;;5048507;28;20639;-79
2022/03/13 03:03:26;;;;;;;6.22;2.75;;;;;;;;;;5049401;28;20071;-83
2022/03/13 03:05:53;;;;;;;6.97;3.45;;;;;;;;;;5045747;28;20036;-79
2022/03/13 03:08:19;;;;;;;14.27;3.95;;;;;;;;;;5045928;28;20040;-78
2022/03/13 03:10:45;;;;;;;5.95;3.17;;;;;;;;;;5048951;28;20035;-79
2022/03/13 03:13:12;;;;;;;9.63;3.97;;;;;;;;;;5044386;28;20029;-79
2022/03/13 03:15:41;;;;;;;7.47;3.85;;;;;;;;;;5052735;28;20083;-79
2022/03/13 03:18:09;;;;;;;10.20;4.07;;;;;;;;;;5049736;28;20128;-78
2022/03/13 03:20:35;;;;;;;5.05;3.15;;;;;;;;;;5050655;28;20033;-79
2022/03/13 03:23:01;;;;;;;7.30;3.22;;;;;;;;;;5043531;28;20033;-78
2022/03/13 03:25:28;;;;;;;10.20;3.65;;;;;;;;;;5049921;28;20020;-82
2022/03/13 03:27:56;;;;;;;7.15;3.35;;;;;;;;;;5044698;28;20025;-78
2022/03/13 03:30:26;;;;;;;10.13;3.50;;;;;;;;;;5044932;28;20657;-79
2022/03/13 03:32:53;;;;;;;27.02;7.68;;;;;;;;;;5050701;28;20020;-79
2022/03/13 03:35:19;;;;;;;32.95;8.82;;;;;;;;;;5050444;28;20029;-79
2022/03/13 03:37:46;;;;;;;39.22;10.82;;;;;;;;;;5041297;28;20021;-79
2022/03/13 03:40:12;;;;;;;54.65;14.32;;;;;;;;;;5041590;28;20533;-78
2022/03/13 03:42:39;;;;;;;27.70;8.75;;;;;;;;;;5045138;28;20108;-77
2022/03/13 03:45:05;;;;;;;6.30;4.20;;;-3.50;99.90;;;;;;5046688;28;20045;-83
2022/03/13 03:47:31;;;;;;;8.20;3.67;;;;;;;;;;5042451;28;20041;-77
2022/03/13 03:49:57;;;;;;;4.95;2.97;;;;;;;;;;5049323;28;20036;-78
2022/03/13 03:52:23;;;;;;;4.65;3.42;;;;;;;;;;5041902;28;20025;-78
2022/03/13 03:54:49;;;;;;;9.40;3.17;;;;;;;;;;5043858;28;20021;-77
2022/03/13 03:57:15;;;;;;;3.28;2.97;;;;;;;;;;5044006;28;20021;-81
2022/03/13 03:59:41;;;;;;;7.35;2.42;;;;;;;;;;5043209;28;20028;-78
2022/03/13 04:02:07;;;;;;;7.32;3.58;;;;;;;;;;5045980;28;20112;-78
2022/03/13 04:04:33;;;;;;;8.25;3.95;;;;;;;;;;5047333;28;20120;-77
2022/03/13 04:06:59;;;;;;;6.95;3.05;;;;;;;;;;5041821;28;20021;-80
2022/03/13 04:09:25;;;;;;;6.65;4.50;;;;;;;;;;5043998;28;20120;-79
2022/03/13 04:11:52;;;;;;;4.60;2.85;;;;;;;;;;5043729;28;20098;-81
2022/03/13 04:14:20;;;;;;;10.75;4.20;;;;;;;;;;5044845;28;20037;-78
2022/03/13 04:16:46;;;;;;;5.85;2.55;;;;;;;;;;5045332;28;20060;-77
2022/03/13 04:19:13;;;;;;;8.18;3.55;;;;;;;;;;5048610;28;20033;-78
2022/03/13 04:21:41;;;;;;;4.78;2.45;;;;;;;;;;5040220;28;20508;-78
2022/03/13 04:24:07;;;;;;;5.03;2.50;;;;;;;;;;5048377;28;20037;-78
2022/03/13 04:26:33;;;;;;;5.95;1.85;;;;;;;;;;5049380;28;20025;-77
2022/03/13 04:29:00;;;;;;;5.35;3.60;;;;;;;;;;5042901;28;20484;-77
2022/03/13 04:31:26;;;;;;;11.13;3.60;;;;;;;;;;5041842;28;20040;-77
2022/03/13 04:33:52;;;;;;;3.10;2.40;;;;;;;;;;5043174;28;20025;-78
2022/03/13 04:36:22;;;;;;;8.35;3.00;;;;;;;;;;5048926;28;20033;-79
2022/03/13 04:38:48;;;;;;;8.25;2.88;;;;;;;;;;5041354;28;20029;-80
2022/03/13 04:41:14;;;;;;;3.80;2.65;;;;;;;;;;5050510;28;20040;-81
2022/03/13 04:43:40;;;;;;;8.82;3.97;;;;;;;;;;5041585;28;20048;-77
2022/03/13 04:46:06;;;;;;;15.13;2.33;;;;;;;;;;5050431;28;20052;-79
2022/03/13 04:48:34;;;;;;;3.75;2.65;;;;;;;;;;5043139;28;20052;-76
2022/03/13 04:51:00;;;;;;;4.45;2.90;;;;;;;;;;5038950;28;20029;-76
2022/03/13 04:53:26;;;;;;;6.97;2.35;;;;;;;;;;5031485;28;20467;-77
2022/03/13 04:55:52;;;;;;;2.75;2.53;;;;;;;;;;5044428;28;20060;-78
2022/03/13 04:58:19;;;;;;;4.97;4.05;;;;;;;;;;5040592;28;20029;-81
2022/03/13 05:00:47;;;;;;;5.13;2.08;;;;;;;;;;5040538;28;20060;-77
2022/03/13 05:03:13;;;;;;;4.75;2.50;;;;;;;;;;5043551;28;20109;-82
2022/03/13 05:05:40;;;;;;;4.95;2.55;;;;;;;;;;5040552;28;20021;-78
2022/03/13 05:08:10;;;;;;;6.90;3.63;;;;;;;;;;5040755;28;20033;-78
2022/03/13 05:10:36;;;;;;;4.30;2.47;;;;;;;;;;5042049;28;22005;-80
2022/03/13 05:13:03;;;;;;;5.57;2.90;;;;;;;;;;5039218;28;20160;-81
2022/03/13 05:15:30;;;;;;;4.07;2.78;;;;;;;;;;5042088;28;20021;-77
2022/03/13 05:17:55;;;;;;;4.85;2.17;;;;;;;;;;5041522;28;20551;-77
2022/03/13 05:20:21;;;;;;;3.28;2.22;;;;;;;;;;5042529;28;20086;-77
2022/03/13 05:22:48;;;;;;;7.50;2.70;;;;;;;;;;5031832;28;20096;-79
2022/03/13 05:25:14;;;;;;;4.35;2.05;;;;;;;;;;5029320;28;20130;-79
2022/03/13 05:27:41;;;;;;;8.02;2.72;;;;;;;;;;5029881;28;20113;-78
2022/03/13 05:30:07;;;;;;;7.80;3.28;;;;;;;;;;5028673;28;20110;-80
2022/03/13 05:32:35;;;;;;;4.57;2.95;;;;;;;;;;5038480;28;20052;-80
2022/03/13 05:35:01;;;;;;;3.60;1.48;;;;;;;;;;5035989;28;20914;-77
2022/03/13 05:37:27;;;;;;;4.70;2.78;;;;;;;;;;5039895;28;20030;-77
2022/03/13 05:39:53;;;;;;;5.70;2.47;;;;;;;;;;5039379;28;20549;-79
2022/03/13 05:42:24;;;;;;;7.30;2.85;;;;;;;;;;5039254;28;20036;-78
2022/03/13 05:44:50;;;;;;;6.25;2.88;;;;;;;;;;5039154;28;20040;-82
2022/03/13 05:47:17;;;;;;;6.97;3.03;;;;;;;;;;5036034;28;20585;-78
2022/03/13 05:49:44;;;;;;;4.80;2.42;;;;;;;;;;5045409;28;20029;-77
2022/03/13 05:52:13;;;;;;;11.13;2.58;;;;;;;;;;5041256;28;20112;-80
2022/03/13 05:54:39;;;;;;;10.50;3.55;;;;;;;;;;5043551;28;20025;-79
2022/03/13 05:57:06;;;;;;;5.10;2.30;;;;;;;;;;5037669;28;20032;-79
2022/03/13 05:59:35;;;;;;;2.67;1.73;;;;;;;;;;5037876;28;20020;-78
2022/03/13 06:02:02;;;;;;;6.22;2.85;;;;;;;;;;5038205;28;20078;-78
2022/03/13 06:04:28;;;;;;;4.82;2.22;;;;;;;;;;5042638;28;20053;-78
2022/03/13 06:06:54;;;;;;;5.85;2.63;;;;;;;;;;5041049;28;20409;-78
2022/03/13 06:09:20;;;;;;;12.75;3.22;;;;;;;;;;5037888;28;20029;-77
2022/03/13 06:11:46;;;;;;;9.52;3.80;;;;;;;;;;5037525;28;20029;-80
2022/03/13 06:14:12;;;;;;;7.60;3.42;;;;;;;;;;5035974;28;20068;-78
2022/03/13 06:16:38;;;;;;;4.70;3.45;;;;;;;;;;5041082;28;20025;-78
2022/03/13 06:19:04;;;;;;;3.70;2.40;;;;;;;;;;5022303;28;20162;-78
2022/03/13 06:21:30;;;;;;;3.58;2.28;;;;;;;;;;5041595;28;20036;-78
2022/03/13 06:23:56;;;;;;;14.25;3.78;;;;;;;;;;5033981;28;20091;-79
2022/03/13 06:26:22;;;;;;;8.10;3.67;;;;;;;;;;5036851;28;20108;-80
2022/03/13 06:28:48;;;;;;;12.98;3.47;;;;;;;;;;5038991;28;20100;-79
2022/03/13 06:31:15;;;;;;;4.53;2.58;;;;;;;;;;5038534;28;20044;-78
2022/03/13 06:33:40;;;;;;;8.48;3.90;;;;;;;;;;5036139;28;20068;-80
2022/03/13 06:36:07;;;;;;;6.28;3.58;;;;;;;;;;5034959;28;20048;-78
2022/03/13 06:38:33;;;;;;;11.60;3.80;;;;;;;;;;5030110;28;20152;-80
2022/03/13 06:40:59;;;;;;;6.60;2.90;;;;;;;;;;5035741;28;20152;-79
2022/03/13 06:43:25;;;;;;;5.03;2.63;;;;;;;;;;5029373;28;20047;-78
2022/03/13 06:45:51;;;;;;;6.68;3.03;;;;;;;;;;5031960;28;20025;-79
2022/03/13 06:48:21;;;;;;;5.97;2.47;;;;;;;;;;5036247;28;20048;-79
2022/03/13 06:50:47;;;;;;;8.63;2.97;;;;;;;;;;5033351;28;20037;-79
2022/03/13 06:53:13;;;;;;;6.60;2.85;;;;;;;;;;5034262;28;20083;-78
2022/03/13 06:55:40;;;;;;;4.38;2.90;;;;;;;;;;5032361;28;20069;-78
2022/03/13 06:58:06;;;;;;;5.53;2.70;;;;;;;;;;5031627;28;20558;-80
2022/03/13 07:00:32;;;;;;;6.53;2.10;;;;;;;;;;5033340;28;20032;-80
2022/03/13 07:02:58;;;;;;;4.68;2.45;;;;;;;;;;5033530;28;20026;-80
2022/03/13 07:05:24;;;;;;;10.18;3.55;;;;;;;;;;5033657;28;20040;-79
2022/03/13 07:07:53;;;;;;;5.60;3.33;;;;;;;;;;5038725;28;20035;-79
2022/03/13 07:10:19;;;;;;;4.82;3.20;;;;;;;;;;5039371;28;20029;-79
2022/03/13 07:12:46;;;;;;;3.85;2.72;;;;;;;;;;5032746;28;20057;-78
2022/03/13 07:15:13;;;;;;;5.80;3.20;;;;;;;;;;5029542;28;20056;-79
2022/03/13 07:17:41;;;;;;;5.47;2.50;;;;;;;;;;5032893;28;20094;-78
2022/03/13 07:20:07;;;;;;;5.88;2.55;;;;;;;;;;5029319;28;20504;-78
2022/03/13 07:22:33;;;;;;;5.00;2.88;;;;;;;;;;5033480;28;20041;-79
2022/03/13 07:24:59;;;;;;;9.77;2.97;;;;;;;;;;5038683;28;20068;-81
2022/03/13 07:27:25;;;;;;;3.83;2.50;;;;;;;;;;5035682;28;20031;-78
2022/03/13 07:29:51;;;;;;;8.32;2.60;;;;;;;;;;5041107;28;20021;-82
2022/03/13 07:32:17;;;;;;;8.52;4.05;;;;;;;;;;5038643;28;20017;-78
2022/03/13 07:34:43;;;;;;;7.47;2.50;;;;;;;;;;5046242;28;20120;-82
2022/03/13 07:37:10;;;;;;;9.02;4.68;;;;;;;;;;5042674;28;20090;-79
2022/03/13 07:39:41;;;;;;;8.48;3.83;;;;;;;;;;5042902;28;20377;-81
2022/03/13 07:42:07;;;;;;;9.75;4.65;;;;;;;;;;5038682;28;20025;-81
2022/03/13 07:44:33;;;;;;;11.95;5.55;;;;;;;;;;5045798;28;22848;-79
2022/03/13 07:46:59;;;;;;;10.15;5.22;;;;;;;;;;5045495;28;20477;-81
2022/03/13 07:49:25;;;;;;;10.02;4.82;;;;;;;;;;5050492;28;20528;-79
2022/03/13 07:51:51;;;;;;;18.65;5.72;;;;;;;;;;5040556;28;20465;-78
2022/03/13 07:54:19;;;;;;;5.75;3.42;;;;;;;;;;5037622;28;20606;-78
2022/03/13 07:56:45;;;;;;;6.07;3.70;;;;;;;;;;5045314;28;20029;-81
2022/03/13 07:59:11;;;;;;;4.82;2.72;;;;;;;;;;5044853;28;20546;-82
2022/03/13 08:01:37;;;;;;;4.53;2.50;;;;;;;;;;5050076;28;20024;-80
2022/03/13 08:04:05;;;;;;;9.45;2.80;;;;;;;;;;5047465;28;20088;-81
2022/03/13 08:06:34;;;;;;;6.05;2.38;;;0.90;99.90;;;;;;5049807;28;20036;-83
2022/03/13 08:09:00;;;;;;;6.00;2.13;;;;;;;;;;5044124;28;20048;-82
2022/03/13 08:11:26;;;;;;;4.28;1.42;;;;;;;;;;5050173;28;20051;-82
2022/03/13 08:13:53;;;;;;;3.92;2.38;;;;;;;;;;5038327;28;20124;-81
2022/03/13 08:16:19;;;;;;;6.65;2.38;;;;;;;;;;5047726;28;20036;-82
2022/03/13 08:18:45;;;;;;;4.68;2.47;;;;;;;;;;5045785;28;20029;-80
2022/03/13 08:21:12;;;;;;;5.82;2.10;;;;;;;;;;5045914;28;20029;-80
2022/03/13 08:23:38;;;;;;;4.97;2.65;;;;;;;;;;5040050;28;20051;-79
2022/03/13 08:26:04;;;;;;;5.45;2.72;;;;;;;;;;5036517;28;20028;-80
2022/03/13 08:28:30;;;;;;;4.32;2.35;;;;;;;;;;5040205;28;20047;-80
2022/03/13 08:30:56;;;;;;;4.47;2.55;;;;;;;;;;5044516;28;20485;-81
2022/03/13 08:33:22;;;;;;;3.63;1.80;;;;;;;;;;5045802;28;20033;-81
2022/03/13 08:35:48;;;;;;;3.78;1.98;;;;;;;;;;5040767;28;20021;-81
2022/03/13 08:38:14;;;;;;;5.07;2.22;;;;;;;;;;5047130;28;20035;-81
2022/03/13 08:40:40;;;;;;;3.00;2.05;;;;;;;;;;5043490;28;20063;-81
2022/03/13 08:43:06;;;;;;;3.35;2.83;;;;;;;;;;5041743;28;20098;-80
2022/03/13 08:45:32;;;;;;;5.93;2.00;;;;;;;;;;5040120;28;20029;-81
2022/03/13 08:47:58;;;;;;;4.65;2.30;;;;;;;;;;5045799;28;20552;-79
2022/03/13 08:50:24;;;;;;;6.30;2.30;;;;;;;;;;5041054;28;20159;-80
2022/03/13 08:52:50;;;;;;;2.88;1.83;;;;;;;;;;5042174;28;20028;-81
2022/03/13 08:55:18;;;;;;;4.00;2.60;;;;;;;;;;5040089;28;20021;-80
2022/03/13 08:57:44;;;;;;;4.13;2.03;;;;;;;;;;5047100;28;20567;-82
2022/03/13 09:00:11;;;;;;;6.15;2.25;;;;;;;;;;5036701;28;20200;-83
2022/03/13 09:02:38;;;;;;;4.53;1.90;;;;;;;;;;5038768;28;20032;-82
2022/03/13 09:05:04;;;;;;;5.75;1.50;;;;;;;;;;5048692;28;20037;-83
2022/03/13 09:07:30;;;;;;;6.10;2.55;;;;;;;;;;5053470;28;20647;-83
2022/03/13 09:09:56;;;;;;;5.00;2.25;;;;;;;;;;5049378;28;20059;-83
2022/03/13 09:12:22;;;;;;;6.18;2.03;;;;;;;;;;5043786;28;20489;-83
2022/03/13 09:14:48;;;;;;;5.85;2.10;;;;;;;;;;5040454;28;20100;-82
2022/03/13 09:17:17;;;;;;;4.40;2.45;;;;;;;;;;5052263;28;20021;-82
2022/03/13 09:19:43;;;;;;;11.48;2.97;;;;;;;;;;5049905;28;20026;-82
2022/03/13 09:22:09;;;;;;;4.93;2.47;;;;;;;;;;5041468;28;20582;-84
2022/03/13 09:24:35;;;;;;;6.80;3.13;;;;;;;;;;5041536;28;20049;-80
2022/03/13 09:27:01;;;;;;;5.78;2.40;;;;;;;;;;5047184;28;20028;-82
2022/03/13 09:29:27;;;;;;;10.25;2.72;;;;;;;;;;5043953;28;20028;-81
2022/03/13 09:31:53;;;;;;;7.90;2.75;;;;;;;;;;5051307;28;20035;-80
2022/03/13 09:34:19;;;;;;;6.15;2.58;;;;;;;;;;5047727;28;20032;-83
2022/03/13 09:36:45;;;;;;;7.32;2.30;;;;;;;;;;5043324;28;20033;-82
2022/03/13 09:39:11;;;;;;;7.10;2.40;;;;;;;;;;5045756;28;20032;-81
2022/03/13 09:41:41;;;;;;;6.55;3.05;;;;;;;;;;5052565;28;20031;-85
2022/03/13 09:44:07;;;;;;;7.10;2.97;;;;;;;;;;5045082;28;20432;-82
2022/03/13 09:46:38;;;;;;;7.57;2.67;;;;;;;;;;5043801;28;20051;-83
2022/03/13 09:49:04;;;;;;;5.85;2.35;;;;;;;;;;5044926;28;20025;-82
2022/03/13 09:51:30;;;;;;;4.75;2.50;;;;;;;;;;5038232;28;20029;-78
2022/03/13 09:53:56;;;;;;;5.72;2.30;;;;;;;;;;5039476;28;20551;-83
2022/03/13 09:56:22;;;;;;;5.22;2.25;;;;;;;;;;5033881;28;20025;-80
2022/03/13 09:58:48;;;;;;;5.30;2.17;;;;;;;;;;5043040;28;20020;-85
2022/03/13 10:01:14;;;;;;;5.00;2.60;;;;;;;;;;5038121;28;20040;-81
2022/03/13 10:03:41;;;;;;;4.78;2.33;;;;;;;;;;5038574;28;20568;-85
2022/03/13 10:06:07;;;;;;;7.20;2.33;;;;;;;;;;5042211;28;20021;-80
2022/03/13 10:08:34;;;;;;;6.68;2.67;;;;;;;;;;5039772;28;20047;-83
2022/03/13 10:11:02;;;;;;;4.40;1.95;;;;;;;;;;5040040;28;20029;-82
2022/03/13 10:13:43;;;;;;;7.45;2.65;;;;;;;;;;5046464;28;20053;-79
2022/03/13 10:16:15;;;;;;;5.85;3.13;;;;;;;;;;5045526;28;20040;-79
2022/03/13 10:18:41;;;;;;;8.45;3.72;;;;;;;;;;5053292;28;20034;-80
2022/03/13 10:21:12;;;;;;;4.10;2.40;;;;;;;;;;5042609;28;20053;-80
2022/03/13 10:23:37;;;;;;;7.22;2.67;;;11.20;86.10;;;;;;5040173;28;20041;-80
2022/03/13 10:26:07;;;;;;;6.93;2.42;;;11.30;87.00;;;;;;5051912;28;20803;-80
2022/03/13 10:28:34;;;;;;;7.35;3.10;;;;;;;;;;5047096;28;20043;-80
2022/03/13 10:31:00;;;;;;;6.47;2.20;;;;;;;;;;5030642;28;20093;-80
2022/03/13 10:33:27;;;;;;;8.48;2.42;;;;;;;;;;5043024;28;20107;-80
2022/03/13 10:36:09;;;;;;;7.97;3.35;;;;;;;;;;5050102;28;20484;-80
2022/03/13 10:38:36;;;;;;;8.73;3.92;;;;;;;;;;5042325;28;20047;-83
2022/03/13 10:41:08;;;;;;;9.50;3.30;;;;;;;;;;5049921;28;20033;-82
2022/03/13 10:43:37;;;;;;;10.80;3.45;;;;;;;;;;5038628;28;20044;-84
2022/03/13 10:46:04;;;;;;;10.43;3.42;;;10.90;64.70;;;;;;5045728;28;20040;-82
2022/03/13 10:48:37;;;;;;;7.82;2.92;;;;;;;;;;5053258;28;20192;-81
2022/03/13 10:51:04;;;;;;;6.87;3.50;;;;;;;;;;5045354;28;20478;-86
2022/03/13 10:53:31;;;;;;;8.13;3.70;;;;;;;;;;5048549;28;20029;-81
2022/03/13 10:56:10;;;;;;;8.93;4.03;;;;;;;;;;5048368;28;20021;-84
2022/03/13 10:58:40;;;;;;;8.07;3.22;;;;;;;;;;5045357;28;20497;-81
2022/03/13 11:01:08;;;;;;;15.75;3.55;;;;;;;;;;5048030;28;20070;-84
2022/03/13 11:03:35;;;;;;;12.60;3.78;;;;;;;;;;5051965;28;20060;-83
2022/03/13 11:06:01;;;;;;;8.35;3.50;;;;;;;;;;5040434;28;20060;-84
2022/03/13 11:08:28;;;;;;;9.60;4.30;;;;;;;;;;5045391;28;20684;-81
2022/03/13 11:10:54;;;;;;;8.57;3.88;;;;;;;;;;5039334;28;20029;-81
2022/03/13 11:13:21;;;;;;;5.93;3.22;;;;;;;;;;5048809;28;20029;-84
2022/03/13 11:15:48;;;;;;;7.03;4.25;;;;;;;;;;5051340;28;20044;-83
2022/03/13 11:18:16;;;;;;;6.97;3.38;;;;;;;;;;5046240;28;20104;-81
2022/03/13 11:20:42;;;;;;;11.93;4.75;;;;;;;;;;5057949;28;20033;-79
2022/03/13 11:23:09;;;;;;;14.70;4.45;;;;;;;;;;5052187;28;20021;-82
2022/03/13 11:25:38;;;;;;;11.15;4.05;;;;;;;;;;5054940;28;20041;-84
2022/03/13 11:28:04;;;;;;;7.18;3.13;;;;;;;;;;5056819;28;20028;-82
2022/03/13 11:30:32;;;;;;;7.97;3.67;;;13.10;56.60;;;;;;5053832;28;20106;-82
2022/03/13 11:33:00;;;;;;;6.95;3.42;;;;;;;;;;5057518;28;20045;-84
2022/03/13 11:35:28;;;;;;;7.25;2.88;;;;;;;;;;5045376;28;20033;-85
2022/03/13 11:38:09;;;;;;;8.55;3.40;;;;;;;;;;5062591;28;20024;-81
2022/03/13 11:40:37;;;;;;;9.45;3.42;;;12.80;57.90;;;;;;5057924;28;20404;-85
2022/03/13 11:43:12;;;;;;;10.90;3.47;;;;;;;;;;5054894;28;20044;-84
2022/03/13 11:45:39;;;;;;;8.45;3.45;;;;;;;;;;5059087;28;20032;-83
2022/03/13 11:48:05;;;;;;;10.75;3.83;;;;;;;;;;5053933;28;20036;-84
2022/03/13 11:50:47;;;;;;;9.35;3.83;;;;;;;;;;5052424;28;20029;-82
2022/03/13 11:53:24;;;;;;;5.78;3.92;;;13.70;57.60;;;;;;5055904;28;20093;-83
2022/03/13 11:56:02;;;;;;;8.32;3.90;;;;;;;;;;5058141;28;20077;-83
2022/03/13 11:58:47;;;;;;;10.57;4.43;;;;;;;;;;5049741;28;20037;-82
2022/03/13 12:01:29;;;;;;;9.93;4.40;;;13.60;56.00;;;;;;5057002;28;20048;-82
2022/03/13 12:04:03;;;;;;;9.13;4.05;;;14.20;53.40;;;;;;5050917;28;20492;-82
2022/03/13 12:06:41;;;;;;;11.48;4.75;;;;;;;;;;5051680;28;20081;-84
2022/03/13 12:09:14;;;;;;;9.55;4.15;;;;;;;;;;5048418;28;20029;-83
2022/03/13 12:11:46;;;;;;;8.73;4.28;;;;;;;;;;5056912;28;20082;-82
2022/03/13 12:14:13;;;;;;;9.32;4.03;;;;;;;;;;5059168;28;20082;-82
2022/03/13 12:16:40;;;;;;;8.95;3.70;;;;;;;;;;5060827;28;20033;-81
2022/03/13 12:19:07;;;;;;;10.88;4.20;;;;;;;;;;5058976;28;20036;-82
2022/03/13 12:21:33;;;;;;;10.70;3.92;;;;;;;;;;5056122;28;20021;-83
2022/03/13 12:24:18;;;;;;;9.25;4.78;;;;;;;;;;5057797;28;20032;-83
2022/03/13 12:26:53;;;;;;;10.25;4.10;;;;;;;;;;5056524;28;20093;-83
2022/03/13 12:29:19;;;;;;;8.40;3.92;;;;;;;;;;5059122;28;20033;-83
2022/03/13 12:31:46;;;;;;;12.98;4.05;;;;;;;;;;5058095;28;20092;-83
2022/03/13 12:34:13;;;;;;;9.25;3.95;;;;;;;;;;5055395;28;20090;-84
2022/03/13 12:36:43;;;;;;;12.88;4.13;;;;;;;;;;5045155;28;20041;-82
2022/03/13 12:39:12;;;;;;;13.43;5.25;;;;;;;;;;5052125;28;20059;-82
2022/03/13 12:41:42;;;;;;;10.65;5.93;;;;;;;;;;5051789;28;20025;-85
2022/03/13 12:44:09;;;;;;;14.18;4.57;;;;;;;;;;5049296;28;20052;-81
2022/03/13 12:46:36;;;;;;;9.13;4.47;;;;;;;;;;5054045;28;20033;-84
2022/03/13 12:49:05;;;;;;;8.80;4.28;;;14.10;55.80;;;;;;5053550;28;20326;-82
2022/03/13 12:51:38;;;;;;;9.52;3.97;;;;;;;;;;5052109;28;20021;-83
2022/03/13 12:54:04;;;;;;;;;;;;;;;;;;5055832;28;20110;-83
2022/03/13 12:56:30;;;;;;;5.85;3.30;;;;;;;;;;5057465;28;19909;-82
2022/03/13 12:58:57;;;;;;;9.32;4.18;;;;;;;;;;5056590;28;20473;-81
2022/03/13 13:01:25;;;;;;;11.95;4.47;;;;;;;;;;5056948;28;20402;-86
2022/03/13 13:03:52;;;;;;;10.13;4.05;;;;;;;;;;5057469;28;20037;-82
2022/03/13 13:06:50;;;;;;;13.52;4.32;;;14.20;55.00;;;;;;5048583;28;20045;-82
2022/03/13 13:09:29;;;;;;;9.27;4.32;;;;;;;;;;5042133;28;20069;-83
2022/03/13 13:11:55;;;;;;;11.15;4.93;;;;;;;;;;5053864;28;20056;-84
2022/03/13 13:14:28;;;;;;;10.00;4.45;;;;;;;;;;5044747;28;20029;-87
2022/03/13 13:16:54;;;;;;;;;;;;;;;;;;5051260;28;20036;-83
2022/03/13 13:19:21;;;;;;;10.00;4.15;;;;;;;;;;5049642;28;19915;-81
2022/03/13 13:21:57;;;;;;;8.95;4.78;;;;;;;;;;5044081;28;20138;-82
2022/03/13 13:24:23;;;;;;;9.68;4.40;;;;;;;;;;5048972;28;20040;-83
2022/03/13 13:26:49;;;;;;;14.80;5.07;;;;;;;;;;5049371;28;20032;-83
2022/03/13 13:29:29;;;;;;;11.88;4.65;;;;;;;;;;5053065;28;20864;-83
2022/03/13 13:32:15;;;;;;;8.20;4.15;;;;;;;;;;5047673;28;20481;-83
2022/03/13 13:34:44;;;;;;;11.57;4.75;;;;;;;;;;5045167;28;20040;-82
2022/03/13 13:37:10;;;;;;;17.13;5.53;;;;;;;;;;5039937;28;20477;-83
2022/03/13 13:39:36;;;;;;;11.15;4.55;;;;;;;;;;5042384;28;21653;-81
2022/03/13 13:42:03;;;;;;;14.13;5.63;;;;;;;;;;5047919;28;20060;-82
2022/03/13 13:44:32;;;;;;;11.32;5.07;;;;;;;;;;5043547;28;20064;-82
2022/03/13 13:47:07;;;;;;;13.23;4.55;;;;;;;;;;5047698;28;20033;-83
2022/03/13 13:49:33;;;;;;;9.93;4.80;;;;;;;;;;5048410;28;20021;-83
2022/03/13 13:52:11;;;;;;;11.30;4.68;;;;;;;;;;5046971;28;20076;-81
2022/03/13 13:54:37;;;;;;;9.88;4.70;;;;;;;;;;5042698;28;20037;-84
2022/03/13 13:57:04;;;;;;;9.18;5.05;;;;;;;;;;5035685;28;20494;-84
2022/03/13 13:59:39;;;;;;;12.73;5.07;;;;;;;;;;5044892;28;20531;-84
2022/03/13 14:02:05;;;;;;;10.82;5.00;;;;;;;;;;5047610;28;20047;-87
2022/03/13 14:04:39;;;;;;;11.52;4.22;;;;;;;;;;5041390;28;20041;-83
2022/03/13 14:07:06;;;;;;;12.20;4.90;;;;;;;;;;5050385;28;20416;-84
2022/03/13 14:09:32;;;;;;;13.93;5.03;;;;;;;;;;5048914;28;20040;-85
2022/03/13 14:11:59;;;;;;;12.27;5.07;;;;;;;;;;5042260;28;20029;-83
2022/03/13 14:14:25;;;;;;;17.50;5.35;;;;;;;;;;5037628;28;20450;-81
2022/03/13 14:16:51;;;;;;;11.40;4.78;;;;;;;;;;5042744;28;20494;-84
2022/03/13 14:19:17;;;;;;;15.52;4.85;;;;;;;;;;5043815;28;20034;-82
2022/03/13 14:21:43;;;;;;;11.82;5.20;;;;;;;;;;5047820;28;20086;-82
2022/03/13 14:24:11;;;;;;;10.75;5.82;;;;;;;;;;5047897;28;20049;-81
2022/03/13 14:26:37;;;;;;;12.13;4.75;;;;;;;;;;5046708;28;20049;-80
2022/03/13 14:29:04;;;;;;;12.27;5.47;;;;;;;;;;5039341;28;20032;-80
2022/03/13 14:31:30;;;;;;;11.05;4.85;;;;;;;;;;5045200;28;20025;-82
2022/03/13 14:33:56;;;;;;;13.43;6.20;;;;;;;;;;5036904;28;20082;-83
2022/03/13 14:36:22;;;;;;;17.40;5.82;;;;;;;;;;5040054;28;20033;-85
2022/03/13 14:38:49;;;;;;;12.80;5.07;;;;;;;;;;5047307;28;20056;-83